Time;durP1;ratioP1;P1;durP2;ratioP2;P2;SDS_P1;SDS_P2;PMS_P1;PMS_P2;Temp;Humidity;BMP_temperature;BMP_pressure;BME280_temperature;BME280_humidity;BME280_pressure;Samples;Min_cycle;Max_cycle;Signal;HPM_P1;HPM_P2
2022/09/13 00:00:49;;;;;;;9.33;8.45;;;;;;;12.39;83.84;99200.22;1715842;81;21039;-76
2022/09/13 00:03:15;;;;;;;9.88;8.55;;;;;;;12.39;83.85;99197.57;1704847;82;21075;-76
2022/09/13 00:05:42;;;;;;;9.25;7.70;;;;;;;12.39;83.93;99196.25;1705696;82;21450;-75
2022/09/13 00:08:08;;;;;;;9.33;8.33;;;;;;;12.40;83.92;99196.58;1701983;82;21921;-76
2022/09/13 00:10:37;;;;;;;7.55;6.75;;;;;;;12.41;83.95;99203.53;1708779;82;21549;-76
2022/09/13 00:13:05;;;;;;;7.00;6.40;;;;;;;12.43;83.99;99203.36;1706172;82;21020;-76
2022/09/13 00:15:31;;;;;;;7.17;5.90;;;;;;;12.44;83.96;99197.89;1709091;82;21043;-76
2022/09/13 00:17:58;;;;;;;6.72;5.55;;;;;;;12.43;83.91;99192.77;1710807;82;20995;-75
2022/09/13 00:20:25;;;;;;;5.62;5.12;;;;;;;12.44;83.93;99190.45;1709648;82;22016;-76
2022/09/13 00:22:51;;;;;;;5.87;5.37;;;;;;;12.45;83.95;99191.64;1716135;82;21487;-76
2022/09/13 00:25:18;;;;;;;6.12;5.53;;;;;;;12.44;83.91;99193.92;1701820;82;21500;-77
2022/09/13 00:27:44;;;;;;;6.70;5.90;;;;;;;12.41;83.91;99188.96;1701824;82;21122;-76
2022/09/13 00:30:11;;;;;;;5.90;5.30;;;;;;;12.42;83.97;99191.11;1712552;82;21122;-77
2022/09/13 00:32:38;;;;;;;5.85;5.08;;;;;;;12.44;84.00;99188.62;1714712;81;22006;-77
2022/09/13 00:35:06;;;;;;;8.33;5.20;;;;;;;12.46;84.05;99189.81;1704571;82;21039;-77
2022/09/13 00:37:33;;;;;;;6.30;5.20;;;;;;;12.48;84.04;99188.66;1708661;82;21047;-75
2022/09/13 00:40:00;;;;;;;6.17;5.47;;;;;;;12.48;83.97;99186.50;1715236;82;21157;-76
2022/09/13 00:42:28;;;;;;;7.28;5.50;;;;;;;12.46;83.94;99188.49;1708372;82;21144;-77
2022/09/13 00:45:05;;;;;;;6.30;5.70;;;;;;;12.46;83.98;99190.64;1710794;82;22701;-76
2022/09/13 00:47:54;;;;;;;5.72;5.12;;;;;;;12.47;83.94;99184.84;1705349;82;21016;-78
2022/09/13 00:50:33;;;;;;;5.87;5.37;;;;;;;12.45;83.94;99183.69;1685780;82;21039;-78
2022/09/13 00:53:29;;;;;;;6.65;5.05;;;;;;;12.44;83.94;99183.83;1706016;82;21076;-77
2022/09/13 00:56:12;;;;;;;6.80;4.80;;;;;;;12.44;83.92;99179.86;1706031;82;21011;-76
2022/09/13 00:58:53;;;;;;;5.87;5.33;;;;;;;12.41;83.93;99179.69;1704242;82;21832;-77
2022/09/13 01:01:22;;;;;;;7.35;5.85;;;;;;;12.39;83.95;99184.33;1706806;82;20949;-77
2022/09/13 01:03:48;;;;;;;6.60;5.45;;;;;;;12.40;84.00;99178.04;1704910;82;20984;-77
2022/09/13 01:06:19;;;;;;;6.60;5.90;;;;;;;12.40;84.03;99175.39;1707832;82;21086;-77
2022/09/13 01:08:51;;;;;;;6.37;5.78;;;;;;;12.40;84.05;99170.59;1683386;83;21402;-76
2022/09/13 01:11:44;;;;;;;6.65;6.03;;;;;;;12.40;84.06;99170.59;1700652;82;22476;-77
2022/09/13 01:14:11;;;;;;;6.22;5.62;;;;;;;12.39;84.07;99166.30;1698099;82;20956;-76
2022/09/13 01:16:39;;;;;;;6.28;5.67;;;;;;;12.41;84.13;99167.78;1700772;81;21459;-77
2022/09/13 01:19:06;;;;;;;5.45;4.97;;;;;;;12.44;84.10;99166.61;1704296;82;21051;-77
2022/09/13 01:22:11;;;;;;;6.00;5.25;;;;;;;12.43;84.06;99169.77;1706493;82;21047;-77
2022/09/13 01:25:05;;;;;;;5.85;5.15;;;;;;;12.46;84.06;99165.98;1706336;82;21968;-77
2022/09/13 01:27:57;;;;;;;6.00;5.35;;;;;;;12.43;84.05;99167.61;1706818;82;21004;-77
2022/09/13 01:30:46;;;;;;;5.83;5.33;;;;;;;12.43;84.05;99167.61;1711996;82;21011;-77
2022/09/13 01:33:47;;;;;;;5.80;5.30;;;;;;;12.43;84.13;99172.41;1652239;85;21054;-77
2022/09/13 01:36:19;;;;;;;6.20;5.60;;;;;;;12.43;84.15;99164.47;1662024;85;21055;-78
2022/09/13 01:39:05;;;;;;;6.00;5.40;;;;;;;12.43;84.16;99164.96;1677289;82;22469;-76
2022/09/13 01:42:05;;;;;;;5.97;5.42;;;;;;;12.45;84.23;99164.30;1705398;82;21599;-77
2022/09/13 01:45:02;;;;;;;6.00;5.40;;;;;;;12.46;84.24;99165.98;1705651;82;21046;-76
2022/09/13 01:47:33;;;;;;;5.85;5.22;;;;;;;12.47;84.23;99157.88;1699412;82;21095;-76
2022/09/13 01:50:23;;;;;;;5.65;5.15;;;;;;;12.47;84.20;99161.84;1707360;82;21105;-76
2022/09/13 01:53:00;;;;;;;5.70;5.20;;;;;;;12.45;84.19;99157.20;1707368;82;21792;-76
2022/09/13 01:56:02;;;;;;;4.85;4.37;;;;;;;12.43;84.27;99156.52;1706010;82;21091;-78
2022/09/13 01:58:34;;;;;;;4.65;4.25;;;;;;;12.44;84.30;99154.70;1703910;82;21055;-76
2022/09/13 02:01:14;;;;;;;4.50;4.10;;;;;;;12.44;84.35;99152.88;1714643;82;21036;-75
2022/09/13 02:04:01;;;;;;;4.55;4.10;;;;;;;12.44;84.36;99150.23;1688883;82;21047;-77
2022/09/13 02:06:38;;;;;;;4.37;3.98;;;;;;;12.41;84.33;99143.95;1720085;82;21847;-79
2022/09/13 02:09:12;;;;;;;4.55;4.15;;;;;;;12.43;84.41;99143.77;1713614;82;21463;-76
2022/09/13 02:11:40;;;;;;;4.47;4.08;;;;;;;12.41;84.38;99145.27;1725078;82;21386;-77
2022/09/13 02:14:20;;;;;;;4.50;3.90;;;;;;;12.40;84.43;99145.44;1715708;82;21101;-75
2022/09/13 02:16:59;;;;;;;4.58;4.17;;;;;;;12.39;84.47;99143.78;1698250;82;21074;-76
2022/09/13 02:19:32;;;;;;;4.20;3.80;;;;;;;12.40;84.53;99144.94;1703655;82;22507;-77
2022/09/13 02:21:59;;;;;;;5.28;4.17;;;;;;;12.41;84.56;99145.27;1711248;82;21058;-75
2022/09/13 02:24:32;;;;;;;4.00;3.70;;;;;;;12.43;84.53;99145.93;1716267;82;21589;-76
2022/09/13 02:27:03;;;;;;;3.80;3.50;;;;;;;12.42;84.58;99140.30;1716353;82;21047;-76
2022/09/13 02:29:31;;;;;;;4.20;3.55;;;;;;;12.43;84.60;99149.90;1713829;82;21525;-77
2022/09/13 02:32:11;;;;;;;4.42;4.03;;;;;;;12.44;84.62;99138.31;1722925;82;22474;-76
2022/09/13 02:34:56;;;;;;;3.98;3.67;;;;;;;12.44;84.62;99140.96;1714207;82;21481;-77
2022/09/13 02:37:23;;;;;;;;;;;;;;;12.46;84.65;99139.00;1715984;82;20948;-77
2022/09/13 02:39:58;;;;;;;3.58;3.27;;;;;;;12.48;84.62;99137.51;1711217;82;20256;-76
2022/09/13 02:42:37;;;;;;;4.10;3.60;;;;;;;12.48;84.63;99136.19;1714517;82;21101;-76
2022/09/13 02:45:05;;;;;;;3.90;3.52;;;;;;;12.48;84.62;99136.19;1710828;82;21902;-76
2022/09/13 02:47:44;;;;;;;4.35;3.95;;;;;;;12.48;84.62;99132.21;1702351;82;21035;-76
2022/09/13 02:50:22;;;;;;;4.28;3.87;;;;;;;12.48;84.63;99130.39;1715534;82;21422;-76
2022/09/13 02:53:15;;;;;;;6.10;3.47;;;;;;;12.47;84.58;99126.09;1626225;86;21504;-76
2022/09/13 02:56:20;;;;;;;4.45;3.55;;;;;;;12.46;84.62;99127.09;1684797;84;21070;-76
2022/09/13 02:58:59;;;;;;;4.47;3.67;;;;;;;12.46;84.71;99125.76;1684762;84;22229;-76
2022/09/13 03:01:25;;;;;;;4.00;3.65;;;;;;;12.46;84.70;99124.44;1717729;81;21066;-76
2022/09/13 03:03:53;;;;;;;3.90;3.60;;;;;;;12.45;84.71;99118.81;1695619;81;21432;-77
2022/09/13 03:06:24;;;;;;;5.78;3.87;;;;;;;12.47;84.76;99123.44;1722823;81;21456;-76
2022/09/13 03:08:52;;;;;;;4.00;3.70;;;;;;;12.47;84.78;99122.61;1721066;81;21059;-78
2022/09/13 03:11:46;;;;;;;3.80;3.30;;;;;;;12.44;84.81;99115.80;1720519;81;22941;-77
2022/09/13 03:14:19;;;;;;;4.37;3.42;;;;;;;12.45;84.92;99115.30;1720350;81;21003;-74
2022/09/13 03:17:12;;;;;;;4.17;3.77;;;;;;;12.46;84.99;99119.64;1719431;81;20968;-75
2022/09/13 03:19:53;;;;;;;4.97;4.00;;;;;;;12.45;85.03;99119.27;1725624;81;21454;-74
2022/09/13 03:22:54;;;;;;;4.50;3.65;;;;;;;12.46;85.09;99114.34;1720344;81;21003;-75
2022/09/13 03:25:32;;;;;;;3.85;3.45;;;;;;;12.47;85.18;99118.64;1722687;81;21892;-75
2022/09/13 03:28:29;;;;;;;4.12;3.70;;;;;;;12.48;85.21;99108.38;1707261;81;21081;-74
2022/09/13 03:31:12;;;;;;;3.90;3.60;;;;;;;12.49;85.24;99108.20;1724110;81;21042;-74
2022/09/13 03:33:47;;;;;;;4.10;3.80;;;;;;;12.51;85.25;99106.21;1720593;81;21466;-74
2022/09/13 03:36:46;;;;;;;3.85;3.40;;;;;;;12.52;85.24;99105.72;1721415;81;21121;-74
2022/09/13 03:39:37;;;;;;;3.75;3.40;;;;;;;12.53;85.27;99106.05;1721527;81;21827;-75
2022/09/13 03:42:09;;;;;;;3.87;3.50;;;;;;;12.52;85.27;99099.09;1722299;81;21047;-74
2022/09/13 03:44:36;;;;;;;4.03;3.63;;;;;;;12.53;85.32;99102.08;1715735;81;21093;-75
2022/09/13 03:47:03;;;;;;;5.60;3.52;;;;;;;12.52;85.32;99101.25;1720850;81;21700;-74
2022/09/13 03:49:30;;;;;;;4.28;3.98;;;;;;;12.53;85.34;99103.39;1722948;81;21105;-74
2022/09/13 03:51:57;;;;;;;4.12;3.80;;;;;;;12.54;85.32;99105.05;1721997;81;22680;-76
2022/09/13 03:54:31;;;;;;;3.95;3.50;;;;;;;12.55;85.35;99099.61;1722295;81;21051;-76
2022/09/13 03:57:15;;;;;;;5.67;4.20;;;;;;;12.55;85.41;99098.78;1721315;81;21031;-75
2022/09/13 03:59:49;;;;;;;5.25;4.10;;;;;;;12.52;85.44;99099.92;1721791;81;20984;-75
2022/09/13 04:02:17;;;;;;;4.20;3.80;;;;;;;12.49;85.48;99094.97;1715838;81;21080;-75
2022/09/13 04:04:44;;;;;;;7.87;3.98;;;;;;;12.50;85.51;99094.47;1716734;82;22466;-73
2022/09/13 04:07:15;;;;;;;3.90;3.50;;;;;;;12.50;85.60;99100.59;1713702;82;20991;-74
2022/09/13 04:09:44;;;;;;;4.17;3.50;;;;;;;12.52;85.64;99100.42;1716806;81;21020;-74
2022/09/13 04:12:13;;;;;;;5.55;3.02;;;;;;;12.54;85.70;99095.28;1712924;82;21870;-75
2022/09/13 04:14:40;;;;;;;3.20;2.90;;;;;;;12.56;85.71;99100.44;1714298;82;21098;-76
2022/09/13 04:17:06;;;;;;;3.10;2.62;;;;;;;12.57;85.75;99098.12;1716359;82;21944;-75
2022/09/13 04:19:33;;;;;;;3.25;2.70;;;;;;;12.58;85.79;99097.95;1713594;82;21144;-75
2022/09/13 04:21:59;;;;;;;3.17;2.87;;;;;;;12.60;85.80;99102.58;1708804;82;20996;-74
2022/09/13 04:24:27;;;;;;;3.92;2.95;;;;;;;12.61;85.80;99097.61;1718792;82;21474;-74
2022/09/13 04:26:55;;;;;;;3.27;2.98;;;;;;;12.64;85.82;99095.61;1713564;82;21035;-74
2022/09/13 04:29:23;;;;;;;4.03;2.98;;;;;;;12.67;85.81;99097.45;1716428;82;21730;-74
2022/09/13 04:31:50;;;;;;;3.75;2.60;;;;;;;12.69;85.88;99095.95;1705684;82;20957;-74
2022/09/13 04:34:17;;;;;;;3.22;2.90;;;;;;;12.73;85.91;99094.62;1717799;82;21038;-74
2022/09/13 04:36:46;;;;;;;3.60;3.30;;;;;;;12.75;85.91;99091.33;1713107;82;21066;-75
2022/09/13 04:39:13;;;;;;;3.92;2.87;;;;;;;12.77;85.97;99090.66;1713513;82;21043;-74
2022/09/13 04:41:42;;;;;;;3.35;3.05;;;;;;;12.80;86.00;99084.52;1714912;82;22441;-74
2022/09/13 04:44:09;;;;;;;3.77;3.12;;;;;;;12.84;86.01;99086.35;1709157;82;21038;-76
2022/09/13 04:46:37;;;;;;;3.65;3.35;;;;;;;12.88;86.05;99085.83;1716201;82;21012;-76
2022/09/13 04:49:04;;;;;;;4.15;3.75;;;;;;;12.93;86.08;99087.97;1714121;82;21084;-77
2022/09/13 04:51:30;;;;;;;4.25;3.85;;;;;;;12.98;86.09;99088.80;1715533;82;21510;-75
2022/09/13 04:53:59;;;;;;;5.08;4.20;;;;;;;13.02;86.14;99094.08;1711123;82;21732;-75
2022/09/13 04:56:25;;;;;;;5.05;4.55;;;;;;;13.05;86.16;99089.80;1713225;82;21132;-74
2022/09/13 04:58:54;;;;;;;5.25;4.75;;;;;;;13.08;86.21;99088.12;1721585;82;21038;-74
2022/09/13 05:01:22;;;;;;;5.53;5.00;;;;;;;13.11;86.22;99085.13;1716103;81;21058;-75
2022/09/13 05:03:50;;;;;;;5.60;5.10;;;;;;;13.16;86.28;99083.62;1721595;81;20991;-75
2022/09/13 05:06:19;;;;;;;6.78;6.17;;;;;;;13.20;86.33;99085.46;1724087;81;20980;-76
2022/09/13 05:08:54;;;;;;;7.75;6.15;;;;;;;13.24;86.33;99081.49;1718845;81;21046;-74
2022/09/13 05:11:25;;;;;;;7.15;6.47;;;;;;;13.29;86.41;99077.81;1707331;81;20982;-76
2022/09/13 05:13:56;;;;;;;7.58;6.47;;;;;;;13.36;86.41;99078.79;1719926;81;21362;-74
2022/09/13 05:16:24;;;;;;;8.53;7.42;;;;;;;13.39;86.38;99086.39;1720709;80;20949;-75
2022/09/13 05:18:52;;;;;;;9.15;8.23;;;;;;;13.43;86.41;99075.79;1720636;81;21928;-76
2022/09/13 05:21:20;;;;;;;10.18;8.68;;;;;;;13.48;86.44;99079.73;1720203;81;21035;-75
2022/09/13 05:23:52;;;;;;;11.40;9.48;;;;;;;13.51;86.47;99081.56;1718266;81;21032;-77
2022/09/13 05:26:22;;;;;;;12.70;9.58;;;;;;;13.51;86.34;99083.37;1722278;80;20979;-77
2022/09/13 05:28:48;;;;;;;10.40;9.18;;;;;;;13.53;86.36;99084.05;1722234;81;21504;-77
2022/09/13 05:31:29;;;;;;;12.60;9.65;;;;;;;13.58;86.43;99083.84;1717662;81;22558;-75
2022/09/13 05:34:00;;;;;;;15.25;10.03;;;;;;;13.60;86.34;99078.36;1722125;81;21097;-76
2022/09/13 05:36:26;;;;;;;16.95;10.70;;;;;;;13.63;86.32;99082.02;1721442;80;21066;-74
2022/09/13 05:38:53;;;;;;;14.25;11.38;;;;;;;13.63;86.24;99082.02;1722225;81;21050;-73
2022/09/13 05:41:20;;;;;;;13.70;11.00;;;;;;;13.64;86.07;99092.95;1725706;81;21055;-73
2022/09/13 05:43:47;;;;;;;12.70;11.33;;;;;;;13.62;85.96;99093.63;1724580;81;21787;-74
2022/09/13 05:46:16;;;;;;;15.05;11.78;;;;;;;13.62;85.90;99091.80;1726208;81;21090;-75
2022/09/13 05:48:42;;;;;;;15.03;11.75;;;;;;;13.62;85.83;99099.76;1698615;81;20978;-72
2022/09/13 05:51:12;;;;;;;12.20;10.78;;;;;;;13.63;85.77;99099.25;1721895;81;21011;-75
2022/09/13 05:53:41;;;;;;;12.00;10.28;;;;;;;13.62;85.72;99101.09;1722730;81;21104;-74
2022/09/13 05:56:56;;;;;;;11.18;10.08;;;;;;;13.62;85.62;99098.94;1722587;81;21922;-74
2022/09/13 05:59:20;;;;;;;9.85;8.85;;;;;;;13.60;85.56;99096.42;1711266;81;21050;-74
2022/09/13 06:01:48;;;;;;;11.95;9.13;;;;;;;13.64;85.72;99100.91;1713111;81;21627;-77
2022/09/13 06:04:14;;;;;;;10.45;8.95;;;;;;;13.66;85.67;99109.02;1715525;82;21028;-73
2022/09/13 06:06:41;;;;;;;9.83;8.88;;;;;;;13.64;85.56;99114.17;1724645;82;20988;-73
2022/09/13 06:09:10;;;;;;;10.43;9.00;;;;;;;13.63;85.53;99110.69;1713541;82;21971;-75
2022/09/13 06:11:36;;;;;;;10.50;9.23;;;;;;;13.63;85.54;99113.84;1710622;82;21149;-73
2022/09/13 06:14:04;;;;;;;11.57;8.83;;;;;;;13.60;85.47;99120.30;1718274;82;21051;-73
2022/09/13 06:16:31;;;;;;;11.40;7.85;;;;;;;13.59;85.48;99116.00;1723164;82;20988;-73
2022/09/13 06:18:58;;;;;;;12.65;8.25;;;;;;;13.60;85.52;99116.83;1717918;82;21024;-72
2022/09/13 06:21:24;;;;;;;11.68;8.20;;;;;;;13.62;85.53;99124.97;1715322;82;22303;-74
2022/09/13 06:23:52;;;;;;;10.38;9.08;;;;;;;13.64;85.52;99127.44;1682610;83;20952;-73
2022/09/13 06:26:21;;;;;;;10.88;7.78;;;;;;;13.64;85.56;99122.95;1722193;82;21023;-74
2022/09/13 06:28:50;;;;;;;9.58;7.55;;;;;;;13.67;85.60;99129.23;1714394;82;21556;-75
2022/09/13 06:31:18;;;;;;;9.35;8.10;;;;;;;13.68;85.59;99133.55;1719666;82;21480;-75
2022/09/13 06:33:45;;;;;;;8.63;7.53;;;;;;;13.68;85.60;99130.06;1716864;83;21930;-72
2022/09/13 06:36:17;;;;;;;8.13;7.05;;;;;;;13.69;85.62;99126.41;1718245;82;20999;-74
2022/09/13 06:38:47;;;;;;;6.12;5.58;;;;;;;13.68;85.65;99132.72;1719766;82;21022;-75
2022/09/13 06:41:19;;;;;;;7.55;6.75;;;;;;;13.72;85.77;99131.39;1711850;82;21816;-75
2022/09/13 06:43:46;;;;;;;5.97;5.47;;;;;;;13.71;85.73;99135.05;1703543;82;21069;-75
2022/09/13 06:46:16;;;;;;;7.85;6.35;;;;;;;13.72;85.80;99134.88;1712880;82;22571;-75
2022/09/13 06:48:43;;;;;;;7.17;6.37;;;;;;;13.73;85.83;99136.52;1709306;82;20958;-75
2022/09/13 06:51:15;;;;;;;6.90;6.08;;;;;;;13.73;85.86;99137.02;1713679;82;21482;-73
2022/09/13 06:53:42;;;;;;;7.25;6.28;;;;;;;13.74;85.93;99140.00;1717775;82;20900;-75
2022/09/13 06:56:16;;;;;;;9.08;6.17;;;;;;;13.75;85.92;99135.84;1707210;82;21003;-75
2022/09/13 06:58:44;;;;;;;5.22;4.72;;;;;;;13.73;85.91;99136.52;1703184;83;21828;-75
2022/09/13 07:01:14;;;;;;;7.12;6.42;;;;;;;13.76;85.96;99140.66;1718289;82;21408;-75
2022/09/13 07:03:43;;;;;;;7.62;6.87;;;;;;;13.77;85.97;99142.30;1695264;83;21061;-74
2022/09/13 07:06:17;;;;;;;7.53;6.78;;;;;;;13.78;85.97;99144.45;1712461;82;21033;-75
2022/09/13 07:08:45;;;;;;;6.55;5.95;;;;;;;13.78;85.98;99140.47;1704446;83;21517;-74
2022/09/13 07:11:13;;;;;;;7.55;6.50;;;;;;;13.79;86.07;99144.27;1701447;83;21404;-75
2022/09/13 07:13:40;;;;;;;6.60;6.00;;;;;;;13.81;86.04;99142.30;1697465;83;20879;-75
2022/09/13 07:16:10;;;;;;;6.80;6.20;;;;;;;13.82;86.10;99147.11;1691329;84;21110;-75
2022/09/13 07:18:37;;;;;;;6.17;5.60;;;;;;;13.84;86.12;99151.23;1694629;82;21383;-75
2022/09/13 07:21:07;;;;;;;6.22;5.62;;;;;;;13.86;86.15;99143.09;1679327;83;21125;-75
2022/09/13 07:23:39;;;;;;;6.72;5.60;;;;;;;13.85;86.11;99149.41;1699583;82;22658;-75
2022/09/13 07:26:06;;;;;;;7.05;5.83;;;;;;;13.86;86.13;99147.91;1718426;82;21473;-75
2022/09/13 07:28:38;;;;;;;5.85;5.30;;;;;;;13.90;86.14;99148.41;1708036;82;21041;-74
2022/09/13 07:31:15;;;;;;;6.15;5.55;;;;;;;13.90;86.14;99145.75;1693960;83;21045;-76
2022/09/13 07:33:42;;;;;;;4.97;4.45;;;;;;;13.92;86.19;99143.74;1691806;82;21060;-75
2022/09/13 07:36:10;;;;;;;5.53;5.03;;;;;;;13.94;86.20;99141.23;1691604;82;21798;-75
2022/09/13 07:38:39;;;;;;;5.60;5.10;;;;;;;13.95;86.19;99143.39;1691939;82;21003;-76
2022/09/13 07:41:12;;;;;;;5.28;4.78;;;;;;;13.98;86.22;99147.84;1701921;81;21066;-75
2022/09/13 07:43:39;;;;;;;5.75;5.17;;;;;;;13.96;86.17;99137.91;1691289;83;20956;-75
2022/09/13 07:46:10;;;;;;;5.00;4.50;;;;;;;13.97;86.14;99145.36;1704825;83;21090;-75
2022/09/13 07:48:39;;;;;;;5.22;4.28;;;;;;;13.95;86.06;99149.52;1692691;82;21751;-75
2022/09/13 07:51:18;;;;;;;4.97;4.10;;;;;;;13.92;85.99;99149.05;1693866;83;21038;-76
2022/09/13 07:53:46;;;;;;;4.72;4.08;;;;;;;13.89;85.89;99147.55;1696265;82;21029;-74
2022/09/13 07:56:16;;;;;;;4.30;3.90;;;;;;;13.87;85.77;99149.55;1698785;82;21382;-74
2022/09/13 07:58:44;;;;;;;5.92;3.95;;;;;;;13.82;85.54;99151.09;1700985;82;21459;-74
2022/09/13 08:01:23;;;;;;;6.47;4.30;;;;;;;13.79;85.49;99148.76;1689029;82;21900;-76
2022/09/13 08:03:55;;;;;;;5.08;4.08;;;;;;;13.77;85.48;99152.09;1710315;83;21369;-75
2022/09/13 08:06:22;;;;;;;7.78;4.62;;;;;;;13.78;85.56;99147.11;1728995;82;21382;-75
2022/09/13 08:08:50;;;;;;;7.10;5.05;;;;;;;13.78;85.56;99151.09;1712426;82;20976;-74
2022/09/13 08:11:19;;;;;;;7.78;5.20;;;;;;;13.78;85.54;99151.91;1716080;82;21073;-74
2022/09/13 08:13:47;;;;;;;6.58;5.28;;;;;;;13.75;85.39;99156.25;1716424;82;21803;-74
2022/09/13 08:16:14;;;;;;;8.18;5.30;;;;;;;13.67;85.15;99161.08;1713524;82;20940;-74
2022/09/13 08:18:45;;;;;;;7.78;5.67;;;;;;;13.63;85.12;99158.95;1716222;82;21558;-74
2022/09/13 08:21:11;;;;;;;7.05;5.30;;;;;;;13.58;85.01;99163.43;1716470;82;20995;-75
2022/09/13 08:23:38;;;;;;;7.83;5.35;;;;;;;13.54;84.94;99163.45;1716377;82;20983;-73
2022/09/13 08:26:06;;;;;;;10.13;7.60;;;;;;;13.51;84.94;99164.27;1716378;82;22288;-73
2022/09/13 08:28:34;;;;;;;11.80;7.87;;;;;;;13.46;84.64;99174.08;1716407;82;20952;-75
2022/09/13 08:31:11;;;;;;;12.30;8.13;;;;;;;13.40;84.51;99179.55;1718459;82;20964;-74
2022/09/13 08:33:38;;;;;;;11.88;9.18;;;;;;;13.35;84.41;99180.57;1695742;83;21514;-75
2022/09/13 08:36:05;;;;;;;11.80;8.93;;;;;;;13.31;84.24;99180.56;1687691;85;21035;-77
2022/09/13 08:38:32;;;;;;;10.60;8.08;;;;;;;13.28;84.23;99177.42;1701556;82;21944;-76
2022/09/13 08:41:04;;;;;;;12.00;8.60;;;;;;;13.29;84.30;99179.08;1716172;83;20956;-76
2022/09/13 08:43:48;;;;;;;14.33;8.88;;;;;;;13.30;84.29;99176.25;1716031;83;21098;-75
2022/09/13 08:46:38;;;;;;;15.98;10.38;;;;;;;13.31;84.23;99184.54;1716376;82;21011;-80
2022/09/13 08:49:17;;;;;;;14.85;10.28;;;;;;;13.27;84.07;99177.92;1720138;82;21477;-78
2022/09/13 08:51:53;;;;;;;13.32;10.70;;;;;;;13.26;84.11;99184.23;1740789;80;22459;-79
2022/09/13 08:54:19;;;;;;;15.25;10.78;;;;;;;13.25;84.16;99183.91;1715393;82;20991;-78
2022/09/13 08:57:09;;;;;;;19.10;11.65;;;;;;;13.24;84.23;99186.73;1716352;82;21584;-79
2022/09/13 09:00:15;;;;;;;21.02;12.23;;;;;;;13.26;84.33;99187.38;1714827;83;21225;-79
2022/09/13 09:03:02;;;;;;;17.35;12.33;;;;;;;13.27;84.42;99185.05;1709529;82;21103;-79
2022/09/13 09:05:31;;;;;;;17.40;11.80;;;;;;;13.29;84.48;99183.88;1659524;85;21935;-79
2022/09/13 09:08:12;;;;;;;17.77;11.88;;;;;;;13.29;84.52;99181.23;1679604;84;21010;-80
2022/09/13 09:10:43;;;;;;;15.03;12.15;;;;;;;13.31;84.56;99187.69;1686295;83;21059;-85
2022/09/13 09:13:35;;;;;;;15.78;10.98;;;;;;;13.33;84.63;99185.22;1688344;83;20975;-85
2022/09/13 09:16:54;;;;;;;21.07;12.03;;;;;;;13.38;84.71;99185.53;1652352;85;21439;-81
2022/09/13 09:19:39;;;;;;;17.90;11.88;;;;;;;13.40;84.65;99190.16;1685662;84;22626;-75
2022/09/13 09:25:35;;;;;;;16.95;11.85;;;;;;;13.36;84.45;99194.16;1666612;83;21125;-76
2022/09/13 09:28:01;;;;;;;18.30;12.58;;;;;;;13.35;84.47;99194.33;1687897;85;20986;-76
2022/09/13 09:30:34;;;;;;;14.87;11.48;;;;;;;13.30;84.16;99204.59;1688578;83;21500;-82
2022/09/13 09:33:27;;;;;;;16.00;12.00;;;;;;;13.26;84.06;99194.84;1679366;84;23448;-79
2022/09/13 09:36:05;;;;;;;17.40;12.82;;;;;;;13.26;84.11;99194.84;1674727;84;21072;-75
2022/09/13 09:38:39;;;;;;;18.40;13.13;;;;;;;13.27;83.97;99198.31;1677832;84;21490;-80
2022/09/13 09:41:13;;;;;;;16.35;13.20;;;;;;;13.27;83.96;99198.31;1677596;84;21068;-80
2022/09/13 09:44:11;;;;;;;15.35;13.13;;;;;;;13.28;83.82;99199.97;1672675;84;21012;-80
2022/09/13 09:46:40;;;;;;;19.70;14.15;;;;;;;13.28;83.69;99195.98;1670615;83;22594;-84
2022/09/13 09:52:27;;;;;;;16.55;14.33;;;;;;;13.27;83.37;99200.47;1684583;83;21117;-78
2022/09/13 09:54:56;;;;;;;16.07;14.37;;;;;;;13.30;83.44;99201.45;1685691;84;21023;-78
2022/09/13 09:57:48;;;;;;;15.35;13.65;;;;;;;13.30;83.34;99203.27;1679030;83;21064;-88
2022/09/13 10:00:16;;;;;;;16.17;14.23;;;;;;;13.30;83.33;99197.47;1678463;84;21916;-79
2022/09/13 10:02:43;;;;;;;16.15;14.40;;;;;;;13.33;83.18;99203.78;1668206;84;21007;-75
2022/09/13 10:05:11;;;;;;;15.88;14.18;;;;;;;13.34;83.08;99204.61;1679857;84;21463;-90
2022/09/13 10:07:38;;;;;;;16.40;14.55;;;;;;;13.35;82.94;99209.74;1655805;85;21032;-85
2022/09/13 10:10:11;;;;;;;25.17;14.68;;;;;;;13.33;82.60;99214.89;1665339;85;21031;-78
2022/09/13 10:12:38;;;;;;;13.83;11.10;;;;;;;13.30;82.35;99212.55;1635181;85;21958;-80
2022/09/13 10:15:19;;;;;;;16.37;14.50;;;;;;;13.32;82.35;99213.23;1622100;85;20951;-81
2022/09/13 10:18:12;;;;;;;20.23;14.30;;;;;;;13.34;82.38;99214.72;1656792;85;21042;-81
2022/09/13 10:20:39;;;;;;;17.80;15.07;;;;;;;13.34;82.13;99211.24;1656921;85;21074;-81
2022/09/13 10:23:13;;;;;;;16.60;13.65;;;;;;;13.29;81.77;99214.88;1662542;84;21108;-81
2022/09/13 10:25:40;;;;;;;17.52;14.30;;;;;;;13.26;81.62;99213.40;1662408;85;22488;-81
2022/09/13 10:28:14;;;;;;;15.48;13.43;;;;;;;13.25;81.52;99209.59;1662449;84;21074;-81
2022/09/13 10:31:12;;;;;;;16.00;13.75;;;;;;;13.24;81.47;99215.89;1677585;85;21407;-80
2022/09/13 10:33:42;;;;;;;18.67;13.43;;;;;;;13.22;81.34;99218.72;1634593;87;21074;-81
2022/09/13 10:36:30;;;;;;;16.45;13.43;;;;;;;13.22;81.28;99219.19;1635660;87;21038;-81
2022/09/13 10:39:05;;;;;;;17.02;13.03;;;;;;;13.18;81.16;99212.87;1654130;84;22411;-81
2022/09/13 10:41:40;;;;;;;15.32;12.90;;;;;;;13.22;81.27;99216.06;1661910;85;21508;-81
2022/09/13 10:44:30;;;;;;;14.85;12.20;;;;;;;13.26;81.33;99215.22;1662564;85;21002;-82
2022/09/13 10:46:58;;;;;;;12.47;11.22;;;;;;;13.34;81.37;99217.88;1673292;83;21017;-81
2022/09/13 10:49:47;;;;;;;13.75;12.30;;;;;;;13.42;81.39;99214.72;1656542;86;20975;-81
2022/09/13 10:52:34;;;;;;;15.70;11.53;;;;;;;13.52;81.02;99217.19;1661320;85;21966;-81
2022/09/13 10:55:42;;;;;;;13.50;11.40;;;;;;;13.62;80.75;99217.83;1662440;85;21348;-81
2022/09/13 10:58:15;;;;;;;16.67;12.40;;;;;;;13.67;80.11;99215.47;1669615;84;21011;-81
2022/09/13 11:01:14;;;;;;;14.83;11.33;;;;;;;13.70;79.56;99215.16;1690437;84;20986;-81
2022/09/13 11:04:21;;;;;;;18.05;10.55;;;;;;;13.77;79.55;99213.95;1679269;85;21398;-79
2022/09/13 11:07:10;;;;;;;12.60;10.53;;;;;;;13.85;79.10;99210.45;1654021;86;21846;-80
2022/09/13 11:09:45;;;;;;;11.08;9.95;;;;;;;14.00;79.35;99211.41;1630920;86;21323;-81
2022/09/13 11:12:48;;;;;;;17.00;10.53;;;;;;;14.13;79.37;99205.03;1637777;86;21027;-81
2022/09/13 11:15:47;;;;;;;14.78;10.45;;;;;;;14.28;79.02;99212.61;1651179;86;21021;-80
2022/09/13 11:18:34;;;;;;;13.53;10.72;;;;;;;14.38;78.40;99211.53;1665691;84;21024;-80
2022/09/13 11:21:35;;;;;;;15.08;10.53;;;;;;;14.43;78.12;99208.70;1677443;84;21908;-80
2022/09/13 11:24:13;;;;;;;13.22;9.93;;;;;;;14.45;77.58;99217.34;1637593;87;21073;-77
2022/09/13 11:27:03;;;;;;;14.45;10.30;;;;;;;14.48;76.86;99205.56;1637896;86;21026;-79
2022/09/13 11:30:17;;;;;;;12.65;10.08;;;;;;;14.54;76.92;99207.00;1637377;86;21066;-80
2022/09/13 11:33:23;;;;;;;13.15;10.53;;;;;;;14.66;77.04;99203.92;1648051;86;21026;-82
2022/09/13 11:36:19;;;;;;;15.63;10.85;;;;;;;14.83;76.83;99207.63;1664553;85;21843;-80
2022/09/13 11:39:23;;;;;;;12.98;9.85;;;;;;;14.94;76.34;99214.36;1669380;84;22067;-82
2022/09/13 11:42:24;;;;;;;14.68;9.30;;;;;;;15.08;76.48;99212.27;1637510;86;21018;-81
2022/09/13 11:45:19;;;;;;;14.25;9.68;;;;;;;15.18;75.80;99213.34;1642754;84;20998;-81
2022/09/13 11:48:26;;;;;;;12.68;9.30;;;;;;;15.17;75.32;99219.67;1637734;87;21072;-81
2022/09/13 11:51:06;;;;;;;12.10;9.45;;;;;;;15.12;74.69;99224.19;1649363;84;21991;-80
2022/09/13 11:53:58;;;;;;;11.18;9.20;;;;;;;15.09;74.24;99227.72;1664812;86;21062;-81
2022/09/13 11:56:36;;;;;;;11.25;9.18;;;;;;;15.04;73.67;99230.07;1648899;84;20975;-81
2022/09/13 11:59:51;;;;;;;11.45;9.78;;;;;;;14.91;73.33;99230.67;1635474;86;20999;-82
2022/09/13 12:02:38;;;;;;;19.05;9.45;;;;;;;14.81;73.25;99234.90;1636197;86;21046;-81
2022/09/13 12:05:16;;;;;;;13.28;10.03;;;;;;;14.71;73.00;99230.31;1640837;84;21794;-82
2022/09/13 12:07:48;;;;;;;11.03;9.75;;;;;;;14.56;72.52;99233.39;1661518;85;20995;-82
2022/09/13 12:10:26;;;;;;;17.37;9.80;;;;;;;14.47;72.74;99238.42;1662558;85;20987;-82
2022/09/13 12:12:52;;;;;;;14.43;10.10;;;;;;;14.40;72.83;99239.60;1672438;83;21034;-80
2022/09/13 12:15:40;;;;;;;16.27;9.93;;;;;;;14.33;72.90;99242.12;1653144;84;20999;-80